createdAt,value
2018-07-20T00:01:12.562Z,12.80
2018-07-20T00:03:41.976Z,13.00
2018-07-20T00:06:10.736Z,13.60
2018-07-20T00:08:39.519Z,13.67
2018-07-20T00:11:08.993Z,13.43
2018-07-20T00:13:37.837Z,14.13
2018-07-20T00:16:07.608Z,13.30
2018-07-20T00:18:37.110Z,17.23
2018-07-20T00:21:05.995Z,17.53
2018-07-20T00:23:34.796Z,14.53
2018-07-20T00:26:03.795Z,13.50
2018-07-20T00:28:32.747Z,13.50
2018-07-20T00:31:01.896Z,13.13
2018-07-20T00:33:31.031Z,13.43
2018-07-20T00:35:59.984Z,15.37
2018-07-20T00:38:28.793Z,12.73
2018-07-20T00:40:57.651Z,12.50
2018-07-20T00:43:27.663Z,13.50
2018-07-20T00:45:56.486Z,13.17
2018-07-20T00:48:25.222Z,13.63
2018-07-20T00:50:54.085Z,13.70
2018-07-20T00:53:23.291Z,13.57
2018-07-20T00:55:52.572Z,13.37
2018-07-20T00:58:21.350Z,13.17
2018-07-20T01:00:50.321Z,13.43
2018-07-20T01:03:19.692Z,14.47
2018-07-20T01:05:48.489Z,13.87
2018-07-20T01:08:17.319Z,13.67
2018-07-20T01:10:46.654Z,12.90
2018-07-20T01:13:15.440Z,14.67
2018-07-20T01:15:44.691Z,14.37
2018-07-20T01:18:14.058Z,13.10
2018-07-20T01:20:42.865Z,13.73
2018-07-20T01:23:12.331Z,14.17
2018-07-20T01:25:41.153Z,13.23
2018-07-20T01:28:09.927Z,13.97
2018-07-20T01:30:38.744Z,14.00
2018-07-20T01:33:07.615Z,13.13
2018-07-20T01:35:36.576Z,14.17
2018-07-20T01:38:05.396Z,12.57
2018-07-20T01:40:34.185Z,13.03
2018-07-20T01:43:03.834Z,11.90
2018-07-20T01:45:32.791Z,12.23
2018-07-20T01:48:01.899Z,13.37
2018-07-20T01:50:31.010Z,12.73
2018-07-20T01:53:01.112Z,14.37
2018-07-20T01:55:30.775Z,11.93
2018-07-20T01:57:59.543Z,12.30
2018-07-20T02:00:28.338Z,12.67
2018-07-20T02:02:58.465Z,12.20
2018-07-20T02:05:27.317Z,12.03
2018-07-20T02:07:56.148Z,11.00
2018-07-20T02:10:25.637Z,11.33
2018-07-20T02:12:54.444Z,11.03
2018-07-20T02:15:23.879Z,10.57
2018-07-20T02:17:53.210Z,10.17
2018-07-20T02:20:21.967Z,10.57
2018-07-20T02:22:51.131Z,10.77
2018-07-20T02:25:19.882Z,10.60
2018-07-20T02:27:48.641Z,9.87
2018-07-20T02:30:17.444Z,10.37
2018-07-20T02:32:46.183Z,10.67
2018-07-20T02:35:15.047Z,9.10
2018-07-20T02:37:43.960Z,9.43
2018-07-20T02:40:13.512Z,7.87
2018-07-20T02:42:42.278Z,8.80
2018-07-20T02:45:11.036Z,7.63
2018-07-20T02:47:40.198Z,9.50
2018-07-20T02:50:09.039Z,9.97
2018-07-20T02:52:37.919Z,8.53
2018-07-20T02:55:07.601Z,8.90
2018-07-20T02:57:36.776Z,9.57
2018-07-20T03:00:05.546Z,8.43
2018-07-20T03:02:34.771Z,7.53
2018-07-20T03:05:03.632Z,9.57
2018-07-20T03:07:34.089Z,8.40
2018-07-20T03:10:04.026Z,9.87
2018-07-20T03:12:33.584Z,8.40
2018-07-20T03:15:02.597Z,8.63
2018-07-20T03:17:34.482Z,9.60
2018-07-20T03:20:03.967Z,8.57
2018-07-20T03:22:33.475Z,7.60
2018-07-20T03:25:02.487Z,9.53
2018-07-20T03:27:32.073Z,7.87
2018-07-20T03:30:01.243Z,11.20
2018-07-20T03:32:30.358Z,6.30
2018-07-20T03:34:59.481Z,8.43
2018-07-20T03:37:28.611Z,8.87
2018-07-20T03:39:58.596Z,5.47
2018-07-20T03:42:28.111Z,8.33
2018-07-20T03:44:56.860Z,6.27
2018-07-20T03:47:25.719Z,8.23
2018-07-20T03:49:54.484Z,7.13
2018-07-20T03:52:23.520Z,8.20
2018-07-20T03:54:52.442Z,5.83
2018-07-20T03:57:22.625Z,9.60
2018-07-20T03:59:51.363Z,7.83
2018-07-20T04:02:20.818Z,6.63
2018-07-20T04:04:49.646Z,6.70
2018-07-20T04:07:18.390Z,5.93
2018-07-20T04:09:47.825Z,7.73
2018-07-20T04:12:16.683Z,7.97
2018-07-20T04:14:45.452Z,9.03
2018-07-20T04:17:14.882Z,7.03
2018-07-20T04:19:44.379Z,6.87
2018-07-20T04:22:14.082Z,8.20
2018-07-20T04:24:42.955Z,9.67
2018-07-20T04:27:11.729Z,5.40
2018-07-20T04:29:40.560Z,5.87
2018-07-20T04:32:09.346Z,7.87
2018-07-20T04:34:38.421Z,7.87
2018-07-20T04:37:07.208Z,8.60
2018-07-20T04:39:36.675Z,11.83
2018-07-20T04:42:05.509Z,8.83
2018-07-20T04:44:34.283Z,7.73
2018-07-20T04:47:03.256Z,9.10
2018-07-20T04:49:32.803Z,6.30
2018-07-20T04:52:03.148Z,6.50
2018-07-20T04:54:33.208Z,8.60
2018-07-20T04:57:02.971Z,10.17
2018-07-20T04:59:32.761Z,9.03
2018-07-20T05:02:03.204Z,8.63
2018-07-20T05:04:32.798Z,8.73
2018-07-20T05:07:01.953Z,7.33
2018-07-20T05:09:32.646Z,6.70
2018-07-20T05:12:03.187Z,9.13
2018-07-20T05:14:32.419Z,6.17
2018-07-20T05:17:02.563Z,6.97
2018-07-20T05:19:33.092Z,7.73
2018-07-20T05:22:02.455Z,5.30
2018-07-20T05:24:32.624Z,7.17
2018-07-20T05:27:02.470Z,6.73
2018-07-20T05:29:31.567Z,6.23
2018-07-20T05:32:01.501Z,9.27
2018-07-20T05:34:31.682Z,8.57
2018-07-20T05:37:00.579Z,8.30
2018-07-20T05:39:30.987Z,7.97
2018-07-20T05:41:59.963Z,7.40
2018-07-20T05:44:28.733Z,7.43
2018-07-20T05:46:57.607Z,5.37
2018-07-20T05:49:26.326Z,5.97
2018-07-20T05:51:55.215Z,9.10
2018-07-20T05:54:24.080Z,6.57
2018-07-20T05:56:53.726Z,7.07
2018-07-20T05:59:22.463Z,7.33
2018-07-20T06:01:52.288Z,7.10
2018-07-20T06:04:21.041Z,9.77
2018-07-20T06:06:49.843Z,7.70
2018-07-20T06:09:18.607Z,7.90
2018-07-20T06:11:48.103Z,7.93
2018-07-20T06:14:16.859Z,5.80
2018-07-20T06:16:45.711Z,7.30
2018-07-20T06:19:14.993Z,9.33
2018-07-20T06:21:43.777Z,8.50
2018-07-20T06:24:13.147Z,6.03
2018-07-20T06:26:41.888Z,7.67
2018-07-20T06:29:11.685Z,6.87
2018-07-20T06:31:40.441Z,6.97
2018-07-20T06:34:09.155Z,6.80
2018-07-20T06:36:37.949Z,6.60
2018-07-20T06:39:09.462Z,6.23
2018-07-20T06:41:38.273Z,5.23
2018-07-20T06:44:07.051Z,7.60
2018-07-20T06:46:36.399Z,6.67
2018-07-20T06:49:05.410Z,8.53
2018-07-20T06:51:34.678Z,6.23
2018-07-20T06:54:03.581Z,6.83
2018-07-20T06:56:33.624Z,5.77
2018-07-20T06:59:02.541Z,5.73
2018-07-20T07:01:33.251Z,6.87
2018-07-20T07:04:03.578Z,8.43
2018-07-20T07:06:33.234Z,6.97
2018-07-20T07:09:02.411Z,5.50
2018-07-20T07:11:32.889Z,5.80
2018-07-20T07:14:03.662Z,6.60
2018-07-20T07:16:33.401Z,6.40
2018-07-20T07:19:02.963Z,9.50
2018-07-20T07:21:32.416Z,6.57
2018-07-20T07:24:02.009Z,5.63
2018-07-20T07:26:31.460Z,6.83
2018-07-20T07:29:01.279Z,5.97
2018-07-20T07:31:30.425Z,9.17
2018-07-20T07:33:59.427Z,5.57
2018-07-20T07:36:28.262Z,6.07
2018-07-20T07:38:57.770Z,6.30
2018-07-20T07:41:26.527Z,5.23
2018-07-20T07:43:55.340Z,7.97
2018-07-20T07:46:24.156Z,7.47
2018-07-20T07:48:52.930Z,6.37
2018-07-20T07:51:21.756Z,6.10
2018-07-20T07:53:50.576Z,8.73
2018-07-20T07:56:19.896Z,7.00
2018-07-20T07:58:48.739Z,7.07
2018-07-20T08:01:17.480Z,6.40
2018-07-20T08:03:46.599Z,7.47
2018-07-20T08:06:15.320Z,8.97
2018-07-20T08:08:44.473Z,6.93
2018-07-20T08:11:13.742Z,9.57
2018-07-20T08:13:42.567Z,7.57
2018-07-20T08:16:11.285Z,7.87
2018-07-20T08:18:40.615Z,9.27
2018-07-20T08:21:09.387Z,8.60
2018-07-20T08:23:38.790Z,7.93
2018-07-20T08:26:07.533Z,7.13
2018-07-20T08:28:37.363Z,6.47
2018-07-20T08:31:06.099Z,6.60
2018-07-20T08:33:34.845Z,8.27
2018-07-20T08:36:03.779Z,6.40
2018-07-20T08:38:33.243Z,9.03
2018-07-20T08:41:02.255Z,7.40
2018-07-20T08:43:31.203Z,7.70
2018-07-20T08:46:00.372Z,6.77
2018-07-20T08:48:29.270Z,6.00
2018-07-20T08:50:58.462Z,6.93
2018-07-20T08:53:27.247Z,7.27
2018-07-20T08:55:56.925Z,7.17
2018-07-20T08:58:25.818Z,8.07
2018-07-20T09:00:54.739Z,7.43
2018-07-20T09:03:24.016Z,6.93
2018-07-20T09:05:52.899Z,7.87
2018-07-20T09:08:21.688Z,7.10
2018-07-20T09:10:51.245Z,7.13
2018-07-20T09:13:19.955Z,7.77
2018-07-20T09:15:48.749Z,7.10
2018-07-20T09:18:18.841Z,9.33
2018-07-20T09:20:47.717Z,8.03
2018-07-20T09:23:17.134Z,7.20
2018-07-20T09:25:46.080Z,7.63
2018-07-20T09:28:15.489Z,7.77
2018-07-20T09:30:44.551Z,6.80
2018-07-20T09:33:13.299Z,9.40
2018-07-20T09:35:42.097Z,8.23
2018-07-20T09:38:11.658Z,8.00
2018-07-20T09:40:40.447Z,9.40
2018-07-20T09:43:09.296Z,6.53
2018-07-20T09:45:38.121Z,10.20
2018-07-20T09:48:06.911Z,8.80
2018-07-20T09:50:35.788Z,7.83
2018-07-20T09:53:04.640Z,8.37
2018-07-20T09:55:34.359Z,8.23
2018-07-20T09:58:03.264Z,9.07
2018-07-20T10:00:38.685Z,7.43
2018-07-20T10:03:08.175Z,7.97
2018-07-20T10:05:36.917Z,7.77
2018-07-20T10:08:05.786Z,8.03
2018-07-20T10:10:35.454Z,7.77
2018-07-20T10:13:04.459Z,8.10
2018-07-20T10:15:33.377Z,8.53
2018-07-20T10:18:03.095Z,8.40
2018-07-20T10:20:32.354Z,8.20
2018-07-20T10:23:02.268Z,8.47
2018-07-20T10:25:31.667Z,8.40
2018-07-20T10:28:01.637Z,9.20
2018-07-20T10:30:30.843Z,8.90
2018-07-20T10:32:59.899Z,8.43
2018-07-20T10:35:28.767Z,8.00
2018-07-20T10:37:57.612Z,9.53
2018-07-20T10:40:28.116Z,8.83
2018-07-20T10:42:58.899Z,8.77
2018-07-20T10:45:27.766Z,8.87
2018-07-20T10:47:56.661Z,10.10
2018-07-20T10:50:25.431Z,10.77
2018-07-20T10:52:54.433Z,10.33
2018-07-20T10:55:24.169Z,8.53
2018-07-20T10:57:52.952Z,8.80
2018-07-20T11:00:21.692Z,9.00
2018-07-20T11:02:50.893Z,8.97
2018-07-20T11:05:19.688Z,8.67
2018-07-20T11:07:48.435Z,8.87
2018-07-20T11:10:17.960Z,9.63
2018-07-20T11:12:46.734Z,8.87
2018-07-20T11:15:15.498Z,9.27
2018-07-20T11:17:45.481Z,8.70
2018-07-20T11:20:14.386Z,9.10
2018-07-20T11:22:43.738Z,8.73
2018-07-20T11:25:12.536Z,8.83
2018-07-20T11:27:41.799Z,8.50
2018-07-20T11:30:10.563Z,9.27
2018-07-20T11:32:39.556Z,9.00
2018-07-20T11:35:08.341Z,9.50
2018-07-20T11:37:37.083Z,9.67
2018-07-20T11:40:06.510Z,9.47
2018-07-20T11:42:35.243Z,9.30
2018-07-20T11:45:04.120Z,9.80
2018-07-20T11:47:33.249Z,9.13
2018-07-20T11:50:02.502Z,8.90
2018-07-20T11:52:32.007Z,8.10
2018-07-20T11:55:01.651Z,9.70
2018-07-20T11:57:31.788Z,8.97
2018-07-20T12:00:01.828Z,9.33
2018-07-20T12:02:31.609Z,8.77
2018-07-20T12:05:00.486Z,9.20
2018-07-20T12:07:29.377Z,8.53
2018-07-20T12:09:58.801Z,9.47
2018-07-20T12:12:27.593Z,10.10
2018-07-20T12:14:56.398Z,9.50
2018-07-20T12:17:25.218Z,10.13
2018-07-20T12:19:55.861Z,10.33
2018-07-20T12:22:25.490Z,9.60
2018-07-20T12:24:54.272Z,10.47
2018-07-20T12:27:23.082Z,10.17
2018-07-20T12:29:52.372Z,9.90
2018-07-20T12:32:21.134Z,10.10
2018-07-20T12:34:50.670Z,10.20
2018-07-20T12:37:19.453Z,9.40
2018-07-20T12:39:48.931Z,9.70
2018-07-20T12:42:17.701Z,9.30
2018-07-20T12:44:47.541Z,9.30
2018-07-20T12:47:16.563Z,9.53
2018-07-20T12:49:45.411Z,9.27
2018-07-20T12:52:14.373Z,8.40
2018-07-20T12:54:43.120Z,8.60
2018-07-20T12:57:12.517Z,9.70
2018-07-20T12:59:41.310Z,9.40
2018-07-20T13:02:11.186Z,9.47
2018-07-20T13:04:39.936Z,9.40
2018-07-20T13:07:08.668Z,9.73
2018-07-20T13:09:38.174Z,8.83
2018-07-20T13:12:07.213Z,8.50
2018-07-20T13:14:35.871Z,9.30
2018-07-20T13:17:04.627Z,8.33
2018-07-20T13:19:35.072Z,9.00
2018-07-20T13:22:04.099Z,9.60
2018-07-20T13:24:34.115Z,8.70
2018-07-20T13:27:03.698Z,8.40
2018-07-20T13:29:33.142Z,8.13
2018-07-20T13:32:02.319Z,9.53
2018-07-20T13:34:32.227Z,8.07
2018-07-20T13:37:01.884Z,9.40
2018-07-20T13:39:31.894Z,8.87
2018-07-20T13:42:00.926Z,8.53
2018-07-20T13:44:29.983Z,9.20
2018-07-20T13:46:58.831Z,8.47
2018-07-20T13:49:27.597Z,9.63
2018-07-20T13:51:56.498Z,8.60
2018-07-20T13:54:25.354Z,8.83
2018-07-20T13:56:54.844Z,8.87
2018-07-20T13:59:23.568Z,8.40
2018-07-20T14:01:53.053Z,8.50
2018-07-20T14:04:21.808Z,8.30
2018-07-20T14:06:50.552Z,8.73
2018-07-20T14:09:19.374Z,8.60
2018-07-20T14:11:48.864Z,9.00
2018-07-20T14:14:17.711Z,8.57
2018-07-20T14:16:46.512Z,8.73
2018-07-20T14:19:16.157Z,9.03
2018-07-20T14:21:45.110Z,9.03
2018-07-20T14:24:14.453Z,8.50
2018-07-20T14:26:43.243Z,9.10
2018-07-20T14:29:12.576Z,8.97
2018-07-20T14:31:41.318Z,9.33
2018-07-20T14:34:10.075Z,9.10
2018-07-20T14:36:38.877Z,9.63
2018-07-20T14:39:12.233Z,9.10
2018-07-20T14:41:42.328Z,9.00
2018-07-20T14:44:11.134Z,10.13
2018-07-20T14:46:39.908Z,9.43
2018-07-20T14:49:08.770Z,8.07
2018-07-20T14:51:37.577Z,9.00
2018-07-20T14:54:06.467Z,7.50
2018-07-20T14:56:35.980Z,8.27
2018-07-20T14:59:04.888Z,7.87
2018-07-20T15:01:34.435Z,8.43
2018-07-20T15:04:03.356Z,7.70
2018-07-20T15:06:32.464Z,8.70
2018-07-20T15:09:01.640Z,7.83
2018-07-20T15:11:31.266Z,9.33
2018-07-20T15:14:00.372Z,7.73
2018-07-20T15:16:29.357Z,8.93
2018-07-20T15:18:58.833Z,7.60
2018-07-20T15:21:27.603Z,8.57
2018-07-20T15:23:57.422Z,7.83
2018-07-20T15:26:26.198Z,8.87
2018-07-20T15:28:55.780Z,7.17
2018-07-20T15:31:24.593Z,12.50
2018-07-20T15:33:53.431Z,7.07
2018-07-20T15:36:22.219Z,8.33
2018-07-20T15:38:52.003Z,8.93
2018-07-20T15:41:21.402Z,8.90
2018-07-20T15:43:50.199Z,8.20
2018-07-20T15:46:19.112Z,8.70
2018-07-20T15:48:47.800Z,7.70
2018-07-20T15:51:16.846Z,8.03
2018-07-20T15:53:45.700Z,7.93
2018-07-20T15:56:15.087Z,7.77
2018-07-20T15:58:43.922Z,8.17
2018-07-20T16:01:12.724Z,7.77
2018-07-20T16:03:42.123Z,7.47
2018-07-20T16:06:10.914Z,7.87
2018-07-20T16:08:39.652Z,7.63
2018-07-20T16:11:09.765Z,7.93
2018-07-20T16:13:38.496Z,7.47
2018-07-20T16:16:07.311Z,7.23
2018-07-20T16:18:36.883Z,7.57
2018-07-20T16:21:05.999Z,7.20
2018-07-20T16:23:35.363Z,7.70
2018-07-20T16:26:04.268Z,7.67
2018-07-20T16:28:33.815Z,8.30
2018-07-20T16:31:03.139Z,7.30
2018-07-20T16:33:32.391Z,7.80
2018-07-20T16:36:01.411Z,8.00
2018-07-20T16:38:30.920Z,8.03
2018-07-20T16:40:59.967Z,8.13
2018-07-20T16:44:31.997Z,9.73
2018-07-20T16:47:00.978Z,8.40
2018-07-20T16:49:29.907Z,8.87
2018-07-20T16:51:58.769Z,8.00
2018-07-20T16:54:27.511Z,8.10
2018-07-20T16:56:56.875Z,7.70
2018-07-20T16:59:25.624Z,9.00
2018-07-20T17:01:55.569Z,8.67
2018-07-20T17:04:24.371Z,8.43
2018-07-20T17:06:53.204Z,8.37
2018-07-20T17:09:22.143Z,8.17
2018-07-20T17:11:51.302Z,8.73
2018-07-20T17:14:20.115Z,11.80
2018-07-20T17:16:48.903Z,11.20
2018-07-20T17:19:18.540Z,9.37
2018-07-20T17:21:47.363Z,9.43
2018-07-20T17:24:16.726Z,9.67
2018-07-20T17:26:45.483Z,9.57
2018-07-20T17:29:15.131Z,9.40
2018-07-20T17:31:43.927Z,9.10
2018-07-20T17:34:12.776Z,8.57
2018-07-20T17:36:41.629Z,8.10
2018-07-20T17:39:12.693Z,8.80
2018-07-20T17:41:41.676Z,8.70
2018-07-20T17:44:10.895Z,8.33
2018-07-20T17:46:39.678Z,8.67
2018-07-20T17:49:08.509Z,8.90
2018-07-20T17:51:37.361Z,8.30
2018-07-20T17:54:06.187Z,8.37
2018-07-20T17:56:35.759Z,8.70
2018-07-20T17:59:04.584Z,8.00
2018-07-20T18:01:34.372Z,9.33
2018-07-20T18:04:03.583Z,8.67
2018-07-20T18:06:32.628Z,8.60
2018-07-20T18:09:01.594Z,8.93
2018-07-20T18:11:31.450Z,9.33
2018-07-20T18:14:00.405Z,8.67
2018-07-20T18:16:29.228Z,8.77
2018-07-20T18:18:58.819Z,8.53
2018-07-20T18:21:27.955Z,9.33
2018-07-20T18:23:57.208Z,9.30
2018-07-20T18:26:26.009Z,9.50
2018-07-20T18:28:55.723Z,9.23
2018-07-20T18:31:24.595Z,8.73
2018-07-20T18:33:53.402Z,10.00
2018-07-20T18:36:22.167Z,8.27
2018-07-20T18:38:51.482Z,9.90
2018-07-20T18:41:20.288Z,9.03
2018-07-20T18:43:49.050Z,9.40
2018-07-20T18:46:17.878Z,8.77
2018-07-20T18:48:46.647Z,9.77
2018-07-20T18:51:15.574Z,8.90
2018-07-20T18:53:44.346Z,10.30
2018-07-20T18:56:14.030Z,8.83
2018-07-20T18:58:42.817Z,9.67
2018-07-20T19:01:11.567Z,9.87
2018-07-20T19:03:41.049Z,9.27
2018-07-20T19:06:09.884Z,9.80
2018-07-20T19:08:38.700Z,9.70
2018-07-20T19:11:08.837Z,9.23
2018-07-20T19:13:37.599Z,9.40
2018-07-20T19:16:06.409Z,8.87
2018-07-20T19:18:35.914Z,9.53
2018-07-20T19:21:04.657Z,8.63
2018-07-20T19:23:34.198Z,9.13
2018-07-20T19:26:03.175Z,8.90
2018-07-20T19:28:33.307Z,10.47
2018-07-20T19:31:02.295Z,9.47
2018-07-20T19:33:31.460Z,9.47
2018-07-20T19:36:00.927Z,8.90
2018-07-20T19:38:30.826Z,9.43
2018-07-20T19:40:59.759Z,9.90
2018-07-20T19:43:28.558Z,10.17
2018-07-20T19:45:57.380Z,10.07
2018-07-20T19:48:26.200Z,9.00
2018-07-20T19:50:55.039Z,9.27
2018-07-20T19:53:23.868Z,9.47
2018-07-20T19:55:53.423Z,9.30
2018-07-20T19:58:22.165Z,10.33
2018-07-20T20:00:50.949Z,9.83
2018-07-20T20:03:20.315Z,9.90
2018-07-20T20:05:49.116Z,9.83
2018-07-20T20:08:17.989Z,10.20
2018-07-20T20:10:47.410Z,9.20
2018-07-20T20:13:16.247Z,10.53
2018-07-20T20:15:45.081Z,10.17
2018-07-20T20:18:14.547Z,10.37
2018-07-20T20:20:43.340Z,10.00
2018-07-20T20:23:13.389Z,13.80
2018-07-20T20:25:42.290Z,10.07
2018-07-20T20:28:11.549Z,9.67
2018-07-20T20:30:40.307Z,10.17
2018-07-20T20:33:09.082Z,10.20
2018-07-20T20:35:37.885Z,10.37
2018-07-20T20:38:06.739Z,9.83
2018-07-20T20:40:36.222Z,10.37
2018-07-20T20:43:05.089Z,10.40
2018-07-20T20:45:33.873Z,10.40
2018-07-20T20:48:02.823Z,9.93
2018-07-20T20:50:31.954Z,10.53
2018-07-20T20:53:01.397Z,9.27
2018-07-20T20:55:32.573Z,12.37
2018-07-20T20:58:01.517Z,10.23
2018-07-20T21:00:30.455Z,10.00
2018-07-20T21:03:00.314Z,10.17
2018-07-20T21:05:29.542Z,9.63
2018-07-20T21:07:58.324Z,9.23
2018-07-20T21:10:27.946Z,10.87
2018-07-20T21:12:56.726Z,10.93
2018-07-20T21:15:25.523Z,9.50
2018-07-20T21:17:55.106Z,10.20
2018-07-20T21:20:23.854Z,10.40
2018-07-20T21:22:53.407Z,9.97
2018-07-20T21:25:22.162Z,11.17
2018-07-20T21:27:51.800Z,10.50
2018-07-20T21:30:20.533Z,10.63
2018-07-20T21:32:49.286Z,10.30
2018-07-20T21:35:18.132Z,11.23
2018-07-20T21:37:46.881Z,10.53
2018-07-20T21:40:16.979Z,11.90
2018-07-20T21:42:45.756Z,9.90
2018-07-20T21:45:14.561Z,10.13
2018-07-20T21:47:43.339Z,10.40
2018-07-20T21:50:12.131Z,10.80
2018-07-20T21:52:41.039Z,10.10
2018-07-20T21:55:10.787Z,10.47
2018-07-20T21:57:39.568Z,10.27
2018-07-20T22:00:14.408Z,10.27
2018-07-20T22:02:44.008Z,10.47
2018-07-20T22:05:12.828Z,11.43
2018-07-20T22:07:41.545Z,9.77
2018-07-20T22:10:11.157Z,9.77
2018-07-20T22:12:39.902Z,8.63
2018-07-20T22:15:09.389Z,9.47
2018-07-20T22:17:39.351Z,8.37
2018-07-20T22:20:09.267Z,7.83
2018-07-20T22:22:38.749Z,7.90
2018-07-20T22:25:07.842Z,7.93
2018-07-20T22:27:37.555Z,7.03
2018-07-20T22:30:09.009Z,7.17
2018-07-20T22:32:37.901Z,6.93
2018-07-20T22:35:07.047Z,7.10
2018-07-20T22:37:35.864Z,7.40
2018-07-20T22:40:06.026Z,7.27
2018-07-20T22:42:34.924Z,5.93
2018-07-20T22:45:04.065Z,6.80
2018-07-20T22:47:33.855Z,6.13
2018-07-20T22:50:03.713Z,7.20
2018-07-20T22:52:33.239Z,7.03
2018-07-20T22:55:03.055Z,6.60
2018-07-20T22:57:33.886Z,7.43
2018-07-20T23:00:04.030Z,6.27
2018-07-20T23:02:34.058Z,6.20
2018-07-20T23:05:03.339Z,5.57
2018-07-20T23:07:32.442Z,8.63
2018-07-20T23:10:02.694Z,6.73
2018-07-20T23:12:34.814Z,6.10
2018-07-20T23:15:05.357Z,8.03
2018-07-20T23:17:34.171Z,6.67
2018-07-20T23:20:03.623Z,5.60
2018-07-20T23:22:34.086Z,5.50
2018-07-20T23:25:04.056Z,8.03
2018-07-20T23:27:33.227Z,6.73
2018-07-20T23:30:05.743Z,5.97
2018-07-20T23:32:34.530Z,6.80
2018-07-20T23:35:03.919Z,6.90
2018-07-20T23:37:33.862Z,5.83
2018-07-20T23:40:03.591Z,6.03
2018-07-20T23:42:33.064Z,8.03
2018-07-20T23:45:03.170Z,6.20
2018-07-20T23:47:32.382Z,5.87
2018-07-20T23:50:02.415Z,8.57
2018-07-20T23:52:31.904Z,6.00
2018-07-20T23:55:01.851Z,6.43
2018-07-20T23:57:31.631Z,7.67
